createdAt,value
2022-08-01T00:01:19.726Z,98196.08
2022-08-01T00:03:47.527Z,98192.26
2022-08-01T00:06:15.363Z,98194.27
2022-08-01T00:08:43.248Z,98191.31
2022-08-01T00:11:11.139Z,98187.38
2022-08-01T00:13:38.950Z,98185.86
2022-08-01T00:16:07.181Z,98190.38
2022-08-01T00:18:36.659Z,98185.90
2022-08-01T00:21:05.629Z,98187.22
2022-08-01T00:23:33.749Z,98184.36
2022-08-01T00:26:02.312Z,98184.14
2022-08-01T00:28:30.082Z,98184.92
2022-08-01T00:30:57.894Z,98186.34
2022-08-01T00:33:26.011Z,98186.20
2022-08-01T00:35:53.907Z,98181.69
2022-08-01T00:38:21.870Z,98184.16
2022-08-01T00:40:51.077Z,98184.04
2022-08-01T00:43:18.945Z,98184.60
2022-08-01T00:45:46.769Z,98180.47
2022-08-01T00:48:14.661Z,98180.89
2022-08-01T00:50:42.759Z,98183.56
2022-08-01T00:53:11.302Z,98181.94
2022-08-01T00:55:48.841Z,98185.18
2022-08-01T00:58:16.784Z,98184.82
2022-08-01T01:00:53.646Z,98187.15
2022-08-01T01:03:58.161Z,98184.77
2022-08-01T01:06:31.947Z,98187.30
2022-08-01T01:09:33.893Z,98190.22
2022-08-01T01:12:20.140Z,98194.13
2022-08-01T01:14:57.686Z,98195.30
2022-08-01T01:17:51.221Z,98191.48
2022-08-01T01:20:23.539Z,98190.80
2022-08-01T01:22:54.135Z,98184.71
2022-08-01T01:26:26.070Z,98183.52
2022-08-01T01:29:21.367Z,98181.52
2022-08-01T01:31:56.482Z,98179.48
2022-08-01T01:34:25.913Z,98177.00
2022-08-01T01:36:56.509Z,98178.59
2022-08-01T01:39:26.942Z,98174.77
2022-08-01T01:41:57.468Z,98175.23
2022-08-01T01:44:28.247Z,98170.23
2022-08-01T01:46:58.087Z,98171.41
2022-08-01T01:49:29.206Z,98171.30
2022-08-01T01:52:08.519Z,98171.48
2022-08-01T01:54:40.562Z,98174.42
2022-08-01T01:57:11.036Z,98173.56
2022-08-01T01:59:41.095Z,98172.15
2022-08-01T02:02:10.798Z,98170.05
2022-08-01T02:04:41.969Z,98170.98
2022-08-01T02:07:13.370Z,98167.38
2022-08-01T02:09:43.968Z,98175.41
2022-08-01T02:12:14.449Z,98171.20
2022-08-01T02:14:46.076Z,98173.50
2022-08-01T02:17:18.211Z,98171.68
2022-08-01T02:19:46.907Z,98170.75
2022-08-01T02:22:34.933Z,98170.15
2022-08-01T02:25:20.739Z,98169.58
2022-08-01T02:28:16.451Z,98166.56
2022-08-01T02:30:48.233Z,98163.48
2022-08-01T02:33:23.165Z,98162.89
2022-08-01T02:36:30.994Z,98162.91
2022-08-01T02:38:48.029Z,98168.55
2022-08-01T02:41:21.794Z,98165.98
2022-08-01T02:43:53.566Z,98165.35
2022-08-01T02:46:30.686Z,98169.22
2022-08-01T02:49:01.995Z,98173.92
2022-08-01T02:51:32.351Z,98169.30
2022-08-01T02:54:02.752Z,98173.65
2022-08-01T02:56:38.485Z,98172.38
2022-08-01T02:59:22.434Z,98171.08
2022-08-01T03:01:53.026Z,98167.69
2022-08-01T03:04:25.619Z,98172.46
2022-08-01T03:06:58.223Z,98172.21
2022-08-01T03:09:29.475Z,98175.98
2022-08-01T03:12:01.965Z,98177.92
2022-08-01T03:14:31.948Z,98173.70
2022-08-01T03:17:01.524Z,98168.39
2022-08-01T03:19:32.616Z,98166.58
2022-08-01T03:22:04.638Z,98164.98
2022-08-01T03:24:34.340Z,98170.02
2022-08-01T03:27:04.860Z,98171.80
2022-08-01T03:29:33.920Z,98171.55
2022-08-01T03:32:03.932Z,98177.52
2022-08-01T03:34:32.014Z,98177.47
2022-08-01T03:37:08.110Z,98178.90
2022-08-01T03:39:44.295Z,98175.98
2022-08-01T03:42:17.347Z,98175.36
2022-08-01T03:44:54.382Z,98175.48
2022-08-01T03:47:28.505Z,98175.16
2022-08-01T03:49:58.871Z,98181.20
2022-08-01T03:52:30.642Z,98182.69
2022-08-01T03:55:04.080Z,98189.93
2022-08-01T03:57:36.142Z,98190.80
2022-08-01T04:00:10.330Z,98191.71
2022-08-01T04:02:42.693Z,98193.20
2022-08-01T04:05:11.375Z,98196.55
2022-08-01T04:07:44.166Z,98192.98
2022-08-01T04:10:12.379Z,98197.68
2022-08-01T04:12:40.542Z,98201.70
2022-08-01T04:15:09.240Z,98202.67
2022-08-01T04:17:37.037Z,98201.27
2022-08-01T04:20:05.312Z,98203.77
2022-08-01T04:22:37.557Z,98202.65
2022-08-01T04:25:13.512Z,98200.29
2022-08-01T04:27:49.658Z,98198.66
2022-08-01T04:30:25.616Z,98200.29
2022-08-01T04:32:56.691Z,98192.61
2022-08-01T04:36:01.554Z,98195.39
2022-08-01T04:38:24.071Z,98194.58
2022-08-01T04:40:53.631Z,98193.28
2022-08-01T04:43:22.258Z,98194.08
2022-08-01T04:45:52.015Z,98199.77
2022-08-01T04:48:22.547Z,98205.71
2022-08-01T04:50:51.220Z,98208.38
2022-08-01T04:53:23.182Z,98208.27
2022-08-01T04:55:51.024Z,98210.58
2022-08-01T04:58:19.443Z,98215.61
2022-08-01T05:00:47.997Z,98214.86
2022-08-01T05:03:16.779Z,98214.26
2022-08-01T05:05:44.938Z,98212.61
2022-08-01T05:08:12.747Z,98213.42
2022-08-01T05:10:40.576Z,98215.93
2022-08-01T05:13:08.525Z,98220.08
2022-08-01T05:15:39.514Z,98220.73
2022-08-01T05:18:08.600Z,98217.38
2022-08-01T05:20:38.242Z,98216.90
2022-08-01T05:23:06.604Z,98216.14
2022-08-01T05:25:57.900Z,98217.09
2022-08-01T05:28:26.697Z,98220.39
2022-08-01T05:30:56.144Z,98218.39
2022-08-01T05:33:24.090Z,98215.11
2022-08-01T05:35:52.176Z,98214.66
2022-08-01T05:38:19.955Z,98215.34
2022-08-01T05:40:47.751Z,98213.98
2022-08-01T05:43:15.766Z,98210.50
2022-08-01T05:45:43.692Z,98211.13
2022-08-01T05:48:11.580Z,98211.67
2022-08-01T05:50:39.486Z,98214.89
2022-08-01T05:53:07.310Z,98217.96
2022-08-01T05:55:36.192Z,98213.29
2022-08-01T05:58:04.137Z,98216.98
2022-08-01T06:00:32.070Z,98219.02
2022-08-01T06:02:59.968Z,98221.10
2022-08-01T06:05:27.740Z,98219.25
2022-08-01T06:07:55.582Z,98222.70
2022-08-01T06:10:23.421Z,98223.55
2022-08-01T06:12:51.263Z,98224.43
2022-08-01T06:15:19.022Z,98227.66
2022-08-01T06:17:46.781Z,98224.91
2022-08-01T06:20:14.584Z,98228.80
2022-08-01T06:22:42.392Z,98228.18
2022-08-01T06:25:10.392Z,98224.89
2022-08-01T06:27:38.642Z,98221.05
2022-08-01T06:30:08.555Z,98225.77
2022-08-01T06:32:36.366Z,98231.02
2022-08-01T06:35:04.864Z,98231.76
2022-08-01T06:37:34.269Z,98223.15
2022-08-01T06:40:11.245Z,98226.45
2022-08-01T06:42:41.781Z,98230.95
2022-08-01T06:45:12.051Z,98232.27
2022-08-01T06:47:40.733Z,98238.67
2022-08-01T06:50:10.469Z,98235.21
2022-08-01T06:52:39.284Z,98229.66
2022-08-01T06:55:07.463Z,98230.88
2022-08-01T06:57:35.299Z,98236.42
2022-08-01T07:00:12.617Z,98235.45
2022-08-01T07:02:40.593Z,98233.52
2022-08-01T07:05:08.782Z,98226.81
2022-08-01T07:07:36.661Z,98227.66
2022-08-01T07:10:05.141Z,98223.74
2022-08-01T07:12:34.289Z,98223.09
2022-08-01T07:15:02.649Z,98221.63
2022-08-01T07:17:30.711Z,98220.70
2022-08-01T07:19:58.513Z,98217.80
2022-08-01T07:22:26.477Z,98219.59
2022-08-01T07:24:54.886Z,98216.20
2022-08-01T07:27:25.760Z,98219.10
2022-08-01T07:29:53.970Z,98217.61
2022-08-01T07:32:21.943Z,98218.73
2022-08-01T07:34:49.742Z,98213.98
2022-08-01T07:37:17.987Z,98212.72
2022-08-01T07:40:06.504Z,98212.99
2022-08-01T07:42:34.575Z,98210.56
2022-08-01T07:45:02.629Z,98210.37
2022-08-01T07:47:30.491Z,98208.27
2022-08-01T07:50:02.008Z,98197.06
2022-08-01T07:52:30.876Z,98201.77
2022-08-01T07:54:59.643Z,98198.50
2022-08-01T07:57:27.507Z,98200.34
2022-08-01T07:59:55.657Z,98192.67
2022-08-01T08:02:23.577Z,98197.20
2022-08-01T08:04:51.431Z,98191.23
2022-08-01T08:07:19.391Z,98192.42
2022-08-01T08:09:50.997Z,98187.56
2022-08-01T08:12:28.370Z,98188.86
2022-08-01T08:14:57.580Z,98192.67
2022-08-01T08:17:26.909Z,98191.96
2022-08-01T08:19:55.324Z,98191.34
2022-08-01T08:22:23.182Z,98188.83
2022-08-01T08:24:51.041Z,98190.84
2022-08-01T08:27:19.227Z,98190.30
2022-08-01T08:29:47.207Z,98194.64
2022-08-01T08:32:15.221Z,98184.10
2022-08-01T08:34:43.361Z,98189.77
2022-08-01T08:37:11.338Z,98184.05
2022-08-01T08:39:41.773Z,98194.21
2022-08-01T08:42:12.072Z,98195.52
2022-08-01T08:44:43.622Z,98194.88
2022-08-01T08:47:19.049Z,98196.07
2022-08-01T08:49:49.609Z,98194.48
2022-08-01T08:52:21.046Z,98194.87
2022-08-01T08:54:51.399Z,98197.27
2022-08-01T08:57:21.287Z,98197.14
2022-08-01T08:59:52.981Z,98198.00
2022-08-01T09:02:21.962Z,98195.09
2022-08-01T09:04:51.007Z,98198.95
2022-08-01T09:07:18.930Z,98203.97
2022-08-01T09:09:50.589Z,98206.03
2022-08-01T09:12:21.447Z,98206.33
2022-08-01T09:14:51.305Z,98205.31
2022-08-01T09:17:19.306Z,98204.30
2022-08-01T09:19:49.907Z,98208.58
2022-08-01T09:22:22.374Z,98212.59
2022-08-01T09:25:08.599Z,98214.60
2022-08-01T09:27:44.145Z,98211.56
2022-08-01T09:30:23.859Z,98213.17
2022-08-01T09:33:06.184Z,98213.64
2022-08-01T09:35:43.268Z,98212.27
2022-08-01T09:38:28.155Z,98213.95
2022-08-01T09:40:58.986Z,98214.00
2022-08-01T09:43:32.291Z,98207.41
2022-08-01T09:46:12.658Z,98219.76
2022-08-01T09:48:56.457Z,98221.28
2022-08-01T09:51:57.822Z,98223.67
2022-08-01T09:54:34.548Z,98221.07
2022-08-01T09:57:13.327Z,98216.67
2022-08-01T09:59:58.269Z,98220.52
2022-08-01T10:02:38.999Z,98220.30
2022-08-01T10:05:09.378Z,98221.77
2022-08-01T10:07:57.921Z,98225.23
2022-08-01T10:10:29.026Z,98221.92
2022-08-01T10:13:00.712Z,98221.73
2022-08-01T10:15:37.878Z,98222.98
2022-08-01T10:18:16.851Z,98222.13
2022-08-01T10:20:56.569Z,98219.10
2022-08-01T10:23:40.799Z,98222.98
2022-08-01T10:26:12.936Z,98218.13
2022-08-01T10:28:44.347Z,98198.36
2022-08-01T10:31:14.453Z,98217.30
2022-08-01T10:33:51.785Z,98212.17
2022-08-01T10:36:22.790Z,98210.54
2022-08-01T10:38:51.195Z,98210.73
2022-08-01T10:41:19.887Z,98207.17
2022-08-01T10:43:47.721Z,98204.73
2022-08-01T10:46:19.181Z,98206.75
2022-08-01T10:48:59.839Z,98208.11
2022-08-01T10:51:52.393Z,98209.34
2022-08-01T10:54:17.832Z,98212.35
2022-08-01T10:56:51.421Z,98208.80
2022-08-01T10:59:50.852Z,98206.53
2022-08-01T11:02:32.708Z,98205.64
2022-08-01T11:05:08.381Z,98209.86
2022-08-01T11:07:46.986Z,98209.57
2022-08-01T11:10:38.396Z,98208.49
2022-08-01T11:13:09.612Z,98212.57
2022-08-01T11:15:50.455Z,98194.96
2022-08-01T11:18:29.829Z,98211.38
2022-08-01T11:21:59.511Z,98212.55
2022-08-01T11:23:51.046Z,98213.55
2022-08-01T11:26:29.400Z,98212.52
2022-08-01T11:29:22.045Z,98210.02
2022-08-01T11:31:53.329Z,98211.67
2022-08-01T11:34:54.743Z,98214.30
2022-08-01T11:37:30.677Z,98208.69
2022-08-01T11:40:29.348Z,98206.60
2022-08-01T11:43:17.614Z,98203.09
2022-08-01T11:45:53.781Z,98206.15
2022-08-01T11:48:31.941Z,98204.90
2022-08-01T11:51:01.886Z,98203.73
2022-08-01T11:53:30.764Z,98200.77
2022-08-01T11:56:00.203Z,98197.46
2022-08-01T11:58:30.775Z,98197.11
2022-08-01T12:00:59.777Z,98196.98
2022-08-01T12:03:33.479Z,98193.98
2022-08-01T12:06:02.449Z,98196.53
2022-08-01T12:08:37.505Z,98189.33
2022-08-01T12:11:07.169Z,98186.45
2022-08-01T12:13:45.828Z,98188.72
2022-08-01T12:16:13.794Z,98185.77
2022-08-01T12:18:43.585Z,98186.80
2022-08-01T12:21:12.564Z,98194.55
2022-08-01T12:23:40.586Z,98192.44
2022-08-01T12:26:08.458Z,98189.48
2022-08-01T12:28:56.345Z,98187.69
2022-08-01T12:31:32.793Z,98184.63
2022-08-01T12:34:28.884Z,98183.94
2022-08-01T12:36:58.640Z,98179.14
2022-08-01T12:39:34.221Z,98182.23
2022-08-01T12:42:02.625Z,98179.06
2022-08-01T12:44:32.194Z,98176.47
2022-08-01T12:47:01.886Z,98177.85
2022-08-01T12:49:29.997Z,98178.83
2022-08-01T12:51:58.441Z,98179.96
2022-08-01T12:54:26.556Z,98175.12
2022-08-01T12:56:54.481Z,98176.18
2022-08-01T12:59:26.374Z,98173.07
2022-08-01T13:01:59.454Z,98174.20
2022-08-01T13:04:27.397Z,98168.48
2022-08-01T13:06:55.430Z,98175.13
2022-08-01T13:09:23.249Z,98171.09
2022-08-01T13:11:59.037Z,98170.79
2022-08-01T13:14:41.682Z,98172.55
2022-08-01T13:17:09.891Z,98174.02
2022-08-01T13:19:48.340Z,98173.98
2022-08-01T13:22:16.085Z,98171.25
2022-08-01T13:24:44.036Z,98169.33
2022-08-01T13:27:24.365Z,98173.16
2022-08-01T13:29:54.039Z,98174.94
2022-08-01T13:33:18.366Z,98170.13
2022-08-01T13:36:19.124Z,98163.62
2022-08-01T13:39:15.318Z,98161.33
2022-08-01T13:41:44.451Z,98161.86
2022-08-01T13:44:14.848Z,98160.73
2022-08-01T13:46:49.889Z,98158.59
2022-08-01T13:49:21.013Z,98160.88
2022-08-01T13:51:52.639Z,98161.67
2022-08-01T13:54:21.421Z,98158.02
2022-08-01T13:56:50.680Z,98156.79
2022-08-01T13:59:20.565Z,98150.18
2022-08-01T14:01:50.431Z,98146.05
2022-08-01T14:04:20.300Z,98151.61
2022-08-01T14:06:49.064Z,98154.73
2022-08-01T14:09:24.210Z,98155.69
2022-08-01T14:11:53.154Z,98153.56
2022-08-01T14:14:20.979Z,98156.20
2022-08-01T14:16:48.957Z,98158.98
2022-08-01T14:19:19.371Z,98158.83
2022-08-01T14:22:05.150Z,98165.83
2022-08-01T14:24:33.259Z,98163.45
2022-08-01T14:27:01.202Z,98166.17
2022-08-01T14:30:00.347Z,98163.90
2022-08-01T14:32:16.953Z,98160.97
2022-08-01T14:34:44.881Z,98164.62
2022-08-01T14:37:12.799Z,98162.69
2022-08-01T14:39:41.844Z,98163.75
2022-08-01T14:42:21.517Z,98169.55
2022-08-01T14:44:50.093Z,98174.45
2022-08-01T14:47:22.029Z,98177.45
2022-08-01T14:49:51.586Z,98159.01
2022-08-01T14:52:20.588Z,98175.84
2022-08-01T14:54:48.809Z,98177.33
2022-08-01T14:57:19.271Z,98178.04
2022-08-01T14:59:47.902Z,98173.85
2022-08-01T15:02:18.303Z,98175.18
2022-08-01T15:04:49.974Z,98174.51
2022-08-01T15:07:18.566Z,98173.64
2022-08-01T15:09:46.783Z,98178.15
2022-08-01T15:12:15.070Z,98178.30
2022-08-01T15:14:49.168Z,98179.67
2022-08-01T15:17:23.433Z,98180.45
2022-08-01T15:19:53.992Z,98181.02
2022-08-01T15:22:23.053Z,98179.30
2022-08-01T15:24:57.167Z,98176.09
2022-08-01T15:27:26.918Z,98175.39
2022-08-01T15:29:55.619Z,98180.75
2022-08-01T15:32:23.702Z,98180.73
2022-08-01T15:34:52.722Z,98181.19
2022-08-01T15:37:20.653Z,98178.71
2022-08-01T15:39:48.809Z,98173.67
2022-08-01T15:42:19.938Z,98172.90
2022-08-01T15:44:53.634Z,98176.16
2022-08-01T15:47:24.741Z,98179.46
2022-08-01T15:49:54.783Z,98181.80
2022-08-01T15:52:31.770Z,98177.18
2022-08-01T15:55:01.827Z,98178.34
2022-08-01T15:57:30.388Z,98175.58
2022-08-01T15:59:59.303Z,98175.52
2022-08-01T16:02:27.223Z,98174.57
2022-08-01T16:04:55.026Z,98165.22
2022-08-01T16:07:23.180Z,98178.35
2022-08-01T16:09:52.843Z,98179.77
2022-08-01T16:12:20.764Z,98181.69
2022-08-01T16:14:48.545Z,98179.89
2022-08-01T16:17:16.468Z,98181.58
2022-08-01T16:19:44.665Z,98180.65
2022-08-01T16:22:12.542Z,98181.29
2022-08-01T16:24:40.670Z,98182.49
2022-08-01T16:27:08.799Z,98183.73
2022-08-01T16:29:37.092Z,98182.98
2022-08-01T16:32:10.410Z,98178.85
2022-08-01T16:34:50.602Z,98176.77
2022-08-01T16:37:18.468Z,98182.02
2022-08-01T16:39:47.528Z,98162.52
2022-08-01T16:42:15.565Z,98181.52
2022-08-01T16:44:45.129Z,98185.28
2022-08-01T16:47:13.047Z,98183.30
2022-08-01T16:49:41.002Z,98187.10
2022-08-01T16:52:09.628Z,98190.48
2022-08-01T16:54:38.158Z,98188.78
2022-08-01T16:57:08.014Z,98188.82
2022-08-01T16:59:41.367Z,98189.20
2022-08-01T17:02:11.246Z,98190.33
2022-08-01T17:04:39.227Z,98195.84
2022-08-01T17:07:07.864Z,98199.32
2022-08-01T17:09:39.911Z,98202.73
2022-08-01T17:12:09.138Z,98200.69
2022-08-01T17:14:40.039Z,98201.79
2022-08-01T17:17:09.032Z,98204.55
2022-08-01T17:19:37.185Z,98205.78
2022-08-01T17:22:05.298Z,98202.60
2022-08-01T17:24:33.188Z,98202.98
2022-08-01T17:27:01.087Z,98205.46
2022-08-01T17:29:28.969Z,98205.16
2022-08-01T17:32:12.941Z,98202.35
2022-08-01T17:34:42.259Z,98203.39
2022-08-01T17:37:10.754Z,98202.21
2022-08-01T17:39:40.024Z,98204.86
2022-08-01T17:42:09.149Z,98207.91
2022-08-01T17:44:37.062Z,98216.45
2022-08-01T17:47:06.737Z,98218.06
2022-08-01T17:49:53.768Z,98218.80
2022-08-01T17:52:23.095Z,98218.45
2022-08-01T17:54:54.145Z,98223.09
2022-08-01T17:57:21.987Z,98220.32
2022-08-01T17:59:50.707Z,98223.55
2022-08-01T18:02:19.211Z,98221.95
2022-08-01T18:04:47.266Z,98225.62
2022-08-01T18:07:15.268Z,98233.48
2022-08-01T18:09:45.952Z,98234.66
2022-08-01T18:12:14.958Z,98237.43
2022-08-01T18:14:44.529Z,98239.02
2022-08-01T18:17:13.238Z,98240.40
2022-08-01T18:19:41.418Z,98247.05
2022-08-01T18:22:32.706Z,98244.95
2022-08-01T18:25:07.598Z,98248.67
2022-08-01T18:28:29.458Z,98248.80
2022-08-01T18:30:25.505Z,98250.05
2022-08-01T18:32:53.592Z,98249.98
2022-08-01T18:35:28.989Z,98253.67
2022-08-01T18:38:10.946Z,98254.61
2022-08-01T18:40:39.751Z,98264.74
2022-08-01T18:43:07.842Z,98269.26
2022-08-01T18:45:39.549Z,98271.30
2022-08-01T18:48:11.867Z,98270.85
2022-08-01T18:50:39.849Z,98275.14
2022-08-01T18:53:07.659Z,98275.27
2022-08-01T18:55:35.620Z,98275.68
2022-08-01T18:58:03.723Z,98280.92
2022-08-01T19:00:31.675Z,98279.14
2022-08-01T19:02:59.820Z,98285.97
2022-08-01T19:05:27.629Z,98285.45
2022-08-01T19:08:05.322Z,98286.22
2022-08-01T19:10:36.390Z,98288.71
2022-08-01T19:13:04.254Z,98289.99
2022-08-01T19:15:32.191Z,98290.71
2022-08-01T19:18:02.324Z,98288.61
2022-08-01T19:20:30.656Z,98288.08
2022-08-01T19:22:58.926Z,98286.25
2022-08-01T19:25:27.059Z,98286.73
2022-08-01T19:27:58.603Z,98286.20
2022-08-01T19:30:27.561Z,98289.02
2022-08-01T19:32:56.468Z,98294.11
2022-08-01T19:35:25.423Z,98298.27
2022-08-01T19:37:54.133Z,98300.93
2022-08-01T19:40:27.680Z,98304.48
2022-08-01T19:42:57.395Z,98307.92
2022-08-01T19:45:29.598Z,98310.40
2022-08-01T19:47:59.064Z,98313.81
2022-08-01T19:50:27.699Z,98311.00
2022-08-01T19:52:57.805Z,98315.31
2022-08-01T19:55:27.454Z,98314.90
2022-08-01T20:00:45.196Z,98319.17
2022-08-01T20:03:17.938Z,98326.04
2022-08-01T20:05:46.013Z,98331.38
2022-08-01T20:08:16.013Z,98330.33
2022-08-01T20:10:43.906Z,98334.08
2022-08-01T20:13:13.985Z,98337.45
2022-08-01T20:15:44.237Z,98343.05
2022-08-01T20:18:12.094Z,98343.98
2022-08-01T20:20:39.982Z,98337.92
2022-08-01T20:23:18.444Z,98344.34
2022-08-01T20:25:49.700Z,98349.58
2022-08-01T20:28:22.944Z,98352.75
2022-08-01T20:30:54.461Z,98350.80
2022-08-01T20:33:22.373Z,98347.36
2022-08-01T20:35:53.353Z,98344.23
2022-08-01T20:38:27.523Z,98342.27
2022-08-01T20:40:59.726Z,98341.64
2022-08-01T20:43:28.083Z,98328.73
2022-08-01T20:45:57.059Z,98335.83
2022-08-01T20:48:29.761Z,98339.21
2022-08-01T20:51:15.016Z,98337.39
2022-08-01T20:53:46.875Z,98337.28
2022-08-01T20:56:37.887Z,98339.51
2022-08-01T20:59:52.042Z,98340.95
2022-08-01T21:02:50.322Z,98343.07
2022-08-01T21:05:31.928Z,98338.45
2022-08-01T21:08:22.537Z,98346.97
2022-08-01T21:10:56.986Z,98353.27
2022-08-01T21:13:38.600Z,98355.17
2022-08-01T21:16:23.631Z,98350.85
2022-08-01T21:22:26.868Z,98346.92
2022-08-01T21:25:03.595Z,98353.17
2022-08-01T21:27:34.272Z,98355.89
2022-08-01T21:30:05.963Z,98358.58
2022-08-01T21:32:35.206Z,98362.08
2022-08-01T21:35:05.534Z,98361.30
2022-08-01T21:37:44.909Z,98361.19
2022-08-01T21:40:22.467Z,98358.86
2022-08-01T21:42:52.529Z,98361.05
2022-08-01T21:45:23.714Z,98369.41
2022-08-01T21:47:52.302Z,98370.33
2022-08-01T21:50:20.871Z,98374.02
2022-08-01T21:53:05.823Z,98376.84
2022-08-01T21:56:00.212Z,98376.35
2022-08-01T21:58:34.304Z,98377.96
2022-08-01T22:01:08.271Z,98376.35
2022-08-01T22:03:44.742Z,98374.10
2022-08-01T22:06:19.432Z,98367.02
2022-08-01T22:08:53.027Z,98365.39
2022-08-01T22:11:29.651Z,98363.30
2022-08-01T22:14:00.130Z,98364.16
2022-08-01T22:16:31.613Z,98364.20
2022-08-01T22:19:02.516Z,98361.20
2022-08-01T22:21:30.708Z,98361.29
2022-08-01T22:23:59.789Z,98358.73
2022-08-01T22:26:29.459Z,98361.39
2022-08-01T22:28:58.824Z,98360.22
2022-08-01T22:31:26.750Z,98362.19
2022-08-01T22:33:55.093Z,98362.29
2022-08-01T22:36:23.327Z,98364.10
2022-08-01T22:38:51.192Z,98366.52
2022-08-01T22:41:25.221Z,98367.00
2022-08-01T22:44:11.037Z,98369.45
2022-08-01T22:46:51.194Z,98369.79
2022-08-01T22:49:35.879Z,98370.07
2022-08-01T22:52:24.482Z,98369.61
2022-08-01T22:55:08.206Z,98373.40
2022-08-01T22:58:01.967Z,98376.27
2022-08-01T23:00:34.236Z,98375.05
2022-08-01T23:03:26.744Z,98377.23
2022-08-01T23:06:12.322Z,98380.91
2022-08-01T23:08:43.765Z,98380.39
2022-08-01T23:11:11.588Z,98383.35
2022-08-01T23:13:40.097Z,98386.46
2022-08-01T23:16:08.578Z,98387.31
2022-08-01T23:18:37.769Z,98371.98
2022-08-01T23:21:14.663Z,98385.51
2022-08-01T23:23:43.227Z,98378.42
2022-08-01T23:26:11.972Z,98379.50
2022-08-01T23:28:44.369Z,98382.75
2022-08-01T23:31:14.198Z,98386.23
2022-08-01T23:33:42.000Z,98385.98
2022-08-01T23:36:09.995Z,98384.77
2022-08-01T23:38:38.973Z,98382.92
2022-08-01T23:41:14.931Z,98382.08
2022-08-01T23:43:52.266Z,98381.51
2022-08-01T23:46:20.538Z,98383.33
2022-08-01T23:48:48.494Z,98383.13
2022-08-01T23:51:24.428Z,98381.16
2022-08-01T23:53:52.950Z,98379.89
2022-08-01T23:56:25.551Z,98377.96
2022-08-01T23:58:54.750Z,98379.02
